sensor_id;sensor_type;location;lat;lon;timestamp;pressure;altitude;pressure_sealevel;temperature;humidity
17781;BME280;8498;52.516;13.790;2023-12-28T00:01:47;100641.44;;;5.93;100.00
17781;BME280;8498;52.516;13.790;2023-12-28T00:07:10;100616.16;;;5.89;100.00
17781;BME280;8498;52.516;13.790;2023-12-28T00:12:34;100607.50;;;5.85;100.00
17781;BME280;8498;52.516;13.790;2023-12-28T00:17:59;100602.75;;;5.94;100.00
17781;BME280;8498;52.516;13.790;2023-12-28T00:23:22;100605.44;;;5.92;100.00
17781;BME280;8498;52.516;13.790;2023-12-28T00:28:44;100576.44;;;5.92;100.00
17781;BME280;8498;52.516;13.790;2023-12-28T00:34:07;100568.25;;;5.98;100.00
17781;BME280;8498;52.516;13.790;2023-12-28T00:39:29;100560.25;;;6.00;100.00
17781;BME280;8498;52.516;13.790;2023-12-28T00:44:51;100554.44;;;5.93;100.00
17781;BME280;8498;52.516;13.790;2023-12-28T00:50:14;100555.47;;;5.91;100.00
17781;BME280;8498;52.516;13.790;2023-12-28T00:55:37;100552.91;;;5.89;100.00
17781;BME280;8498;52.516;13.790;2023-12-28T01:00:59;100548.59;;;5.86;100.00
17781;BME280;8498;52.516;13.790;2023-12-28T01:06:22;100529.34;;;5.84;100.00
17781;BME280;8498;52.516;13.790;2023-12-28T01:11:44;100532.31;;;5.78;100.00
17781;BME280;8498;52.516;13.790;2023-12-28T01:17:07;100538.19;;;5.83;100.00
17781;BME280;8498;52.516;13.790;2023-12-28T01:22:29;100553.88;;;5.86;100.00
17781;BME280;8498;52.516;13.790;2023-12-28T01:27:53;100552.72;;;6.09;99.95
17781;BME280;8498;52.516;13.790;2023-12-28T01:33:15;100552.31;;;6.17;97.93
17781;BME280;8498;52.516;13.790;2023-12-28T01:38:38;100552.09;;;6.21;96.95
17781;BME280;8498;52.516;13.790;2023-12-28T01:44:01;100550.31;;;6.22;96.78
17781;BME280;8498;52.516;13.790;2023-12-28T01:49:23;100539.22;;;6.15;96.64
17781;BME280;8498;52.516;13.790;2023-12-28T01:54:46;100546.66;;;6.07;96.68
17781;BME280;8498;52.516;13.790;2023-12-28T02:00:12;100523.50;;;5.97;97.21
17781;BME280;8498;52.516;13.790;2023-12-28T02:05:36;100514.94;;;5.74;97.58
17781;BME280;8498;52.516;13.790;2023-12-28T02:10:58;100515.34;;;5.49;99.27
17781;BME280;8498;52.516;13.790;2023-12-28T02:16:40;100491.97;;;5.25;99.65
17781;BME280;8498;52.516;13.790;2023-12-28T02:22:07;100480.25;;;5.13;100.00
17781;BME280;8498;52.516;13.790;2023-12-28T02:27:30;100478.63;;;5.10;100.00
17781;BME280;8498;52.516;13.790;2023-12-28T02:38:36;100512.78;;;5.65;100.00
17781;BME280;8498;52.516;13.790;2023-12-28T02:43:59;100513.88;;;5.78;98.46
17781;BME280;8498;52.516;13.790;2023-12-28T02:49:23;100510.47;;;5.94;96.24
17781;BME280;8498;52.516;13.790;2023-12-28T02:54:45;100494.44;;;6.14;95.47
17781;BME280;8498;52.516;13.790;2023-12-28T03:00:08;100501.72;;;6.26;95.15
17781;BME280;8498;52.516;13.790;2023-12-28T03:05:31;100514.41;;;6.35;94.11
17781;BME280;8498;52.516;13.790;2023-12-28T03:10:53;100515.31;;;6.51;93.24
17781;BME280;8498;52.516;13.790;2023-12-28T03:16:17;100504.25;;;6.60;93.17
17781;BME280;8498;52.516;13.790;2023-12-28T03:21:40;100507.31;;;6.69;92.96
17781;BME280;8498;52.516;13.790;2023-12-28T03:27:03;100513.88;;;6.77;92.69
17781;BME280;8498;52.516;13.790;2023-12-28T03:32:26;100499.31;;;6.86;92.33
17781;BME280;8498;52.516;13.790;2023-12-28T03:37:48;100506.91;;;6.92;91.98
17781;BME280;8498;52.516;13.790;2023-12-28T03:43:10;100513.78;;;7.10;90.80
17781;BME280;8498;52.516;13.790;2023-12-28T03:48:33;100494.63;;;7.22;89.35
17781;BME280;8498;52.516;13.790;2023-12-28T03:53:55;100505.13;;;7.54;85.31
17781;BME280;8498;52.516;13.790;2023-12-28T03:59:17;100514.91;;;7.82;82.03
17781;BME280;8498;52.516;13.790;2023-12-28T04:04:40;100531.13;;;8.05;83.70
17781;BME280;8498;52.516;13.790;2023-12-28T04:10:02;100525.75;;;8.07;85.50
17781;BME280;8498;52.516;13.790;2023-12-28T04:15:25;100515.25;;;8.05;87.00
17781;BME280;8498;52.516;13.790;2023-12-28T04:20:48;100508.94;;;8.08;87.00
17781;BME280;8498;52.516;13.790;2023-12-28T04:26:11;100511.66;;;8.06;87.89
17781;BME280;8498;52.516;13.790;2023-12-28T04:31:33;100513.16;;;8.10;87.86
17781;BME280;8498;52.516;13.790;2023-12-28T04:36:56;100522.72;;;8.13;87.84
17781;BME280;8498;52.516;13.790;2023-12-28T04:42:19;100512.81;;;8.17;87.35
17781;BME280;8498;52.516;13.790;2023-12-28T04:47:41;100540.13;;;8.17;87.18
17781;BME280;8498;52.516;13.790;2023-12-28T04:53:04;100528.88;;;8.28;86.97
17781;BME280;8498;52.516;13.790;2023-12-28T04:58:26;100526.25;;;8.28;86.87
17781;BME280;8498;52.516;13.790;2023-12-28T05:03:49;100525.38;;;8.27;85.93
17781;BME280;8498;52.516;13.790;2023-12-28T05:09:12;100538.53;;;8.29;86.60
17781;BME280;8498;52.516;13.790;2023-12-28T05:14:35;100546.38;;;8.30;85.47
17781;BME280;8498;52.516;13.790;2023-12-28T05:19:57;100538.09;;;8.36;85.18
17781;BME280;8498;52.516;13.790;2023-12-28T05:25:19;100553.88;;;8.38;83.95
17781;BME280;8498;52.516;13.790;2023-12-28T05:30:42;100557.84;;;8.45;83.75
17781;BME280;8498;52.516;13.790;2023-12-28T05:36:05;100564.66;;;8.49;83.19
17781;BME280;8498;52.516;13.790;2023-12-28T05:41:31;100561.94;;;8.51;82.51
17781;BME280;8498;52.516;13.790;2023-12-28T05:46:53;100568.81;;;8.53;82.24
17781;BME280;8498;52.516;13.790;2023-12-28T05:52:15;100591.91;;;8.51;82.33
17781;BME280;8498;52.516;13.790;2023-12-28T05:57:41;100593.03;;;8.47;82.20
17781;BME280;8498;52.516;13.790;2023-12-28T06:03:03;100599.44;;;8.43;81.61
17781;BME280;8498;52.516;13.790;2023-12-28T06:08:25;100614.66;;;8.39;80.59
17781;BME280;8498;52.516;13.790;2023-12-28T06:13:49;100607.28;;;8.44;80.90
17781;BME280;8498;52.516;13.790;2023-12-28T06:19:11;100622.91;;;8.49;80.55
17781;BME280;8498;52.516;13.790;2023-12-28T06:24:37;100617.19;;;8.41;80.55
17781;BME280;8498;52.516;13.790;2023-12-28T06:30:01;100617.03;;;8.44;81.11
17781;BME280;8498;52.516;13.790;2023-12-28T06:35:23;100620.63;;;8.43;81.71
17781;BME280;8498;52.516;13.790;2023-12-28T06:40:46;100621.97;;;8.50;81.85
17781;BME280;8498;52.516;13.790;2023-12-28T06:46:08;100613.34;;;8.46;82.18
17781;BME280;8498;52.516;13.790;2023-12-28T06:51:31;100608.31;;;8.42;82.49
17781;BME280;8498;52.516;13.790;2023-12-28T06:56:54;100613.53;;;8.43;82.94
17781;BME280;8498;52.516;13.790;2023-12-28T07:02:16;100609.47;;;8.38;83.61
17781;BME280;8498;52.516;13.790;2023-12-28T07:07:39;100620.81;;;8.40;83.75
17781;BME280;8498;52.516;13.790;2023-12-28T07:13:01;100625.91;;;8.43;84.27
17781;BME280;8498;52.516;13.790;2023-12-28T07:18:24;100624.97;;;8.44;84.57
17781;BME280;8498;52.516;13.790;2023-12-28T07:23:47;100646.78;;;8.33;84.67
17781;BME280;8498;52.516;13.790;2023-12-28T07:29:11;100653.22;;;8.43;84.97
17781;BME280;8498;52.516;13.790;2023-12-28T07:34:33;100666.22;;;8.48;84.58
17781;BME280;8498;52.516;13.790;2023-12-28T07:39:56;100668.94;;;8.46;84.72
17781;BME280;8498;52.516;13.790;2023-12-28T07:45:22;100664.03;;;8.40;85.08
17781;BME280;8498;52.516;13.790;2023-12-28T07:50:45;100670.25;;;8.39;85.55
17781;BME280;8498;52.516;13.790;2023-12-28T07:56:08;100676.66;;;8.35;85.47
17781;BME280;8498;52.516;13.790;2023-12-28T08:01:30;100681.09;;;8.35;86.12
17781;BME280;8498;52.516;13.790;2023-12-28T08:06:55;100685.03;;;8.28;86.85
17781;BME280;8498;52.516;13.790;2023-12-28T08:12:20;100690.00;;;8.34;86.55
17781;BME280;8498;52.516;13.790;2023-12-28T08:17:43;100702.44;;;8.32;87.17
17781;BME280;8498;52.516;13.790;2023-12-28T08:23:05;100718.16;;;8.35;87.55
17781;BME280;8498;52.516;13.790;2023-12-28T08:28:39;100716.97;;;8.40;88.23
17781;BME280;8498;52.516;13.790;2023-12-28T08:34:02;100718.47;;;8.44;88.19
17781;BME280;8498;52.516;13.790;2023-12-28T08:39:25;100714.94;;;8.60;88.51
17781;BME280;8498;52.516;13.790;2023-12-28T08:44:47;100714.22;;;8.72;88.84
17781;BME280;8498;52.516;13.790;2023-12-28T08:50:11;100722.47;;;8.81;88.96
17781;BME280;8498;52.516;13.790;2023-12-28T08:55:33;100727.84;;;8.94;88.98
17781;BME280;8498;52.516;13.790;2023-12-28T09:00:55;100734.00;;;8.95;89.31
17781;BME280;8498;52.516;13.790;2023-12-28T09:06:19;100736.66;;;9.09;88.50
17781;BME280;8498;52.516;13.790;2023-12-28T09:11:42;100744.63;;;9.09;87.73
17781;BME280;8498;52.516;13.790;2023-12-28T09:17:04;100754.28;;;9.24;86.93
17781;BME280;8498;52.516;13.790;2023-12-28T09:22:27;100746.31;;;9.24;86.97
17781;BME280;8498;52.516;13.790;2023-12-28T09:27:52;100748.56;;;9.73;87.12
17781;BME280;8498;52.516;13.790;2023-12-28T09:33:16;100743.69;;;9.52;84.87
17781;BME280;8498;52.516;13.790;2023-12-28T09:38:38;100742.38;;;9.31;86.22
17781;BME280;8498;52.516;13.790;2023-12-28T09:44:12;100737.06;;;9.31;87.05
17781;BME280;8498;52.516;13.790;2023-12-28T09:49:36;100728.25;;;9.31;86.65
17781;BME280;8498;52.516;13.790;2023-12-28T09:54:59;100727.09;;;9.35;86.92
17781;BME280;8498;52.516;13.790;2023-12-28T10:00:22;100730.22;;;9.27;87.00
17781;BME280;8498;52.516;13.790;2023-12-28T10:05:45;100720.00;;;9.35;87.15
17781;BME280;8498;52.516;13.790;2023-12-28T10:11:08;100722.00;;;9.32;87.74
17781;BME280;8498;52.516;13.790;2023-12-28T10:16:30;100722.19;;;9.43;87.62
17781;BME280;8498;52.516;13.790;2023-12-28T10:21:52;100721.63;;;9.38;88.33
17781;BME280;8498;52.516;13.790;2023-12-28T10:27:15;100713.09;;;9.33;89.11
17781;BME280;8498;52.516;13.790;2023-12-28T10:32:40;100715.66;;;9.34;89.14
17781;BME280;8498;52.516;13.790;2023-12-28T10:38:04;100698.13;;;9.46;88.57
17781;BME280;8498;52.516;13.790;2023-12-28T10:43:30;100697.81;;;9.65;88.09
17781;BME280;8498;52.516;13.790;2023-12-28T10:49:02;100690.66;;;9.79;87.30
17781;BME280;8498;52.516;13.790;2023-12-28T11:00:30;100702.56;;;10.27;86.35
17781;BME280;8498;52.516;13.790;2023-12-28T11:05:56;100701.34;;;10.71;84.15
17781;BME280;8498;52.516;13.790;2023-12-28T11:11:21;100702.34;;;11.08;80.89
17781;BME280;8498;52.516;13.790;2023-12-28T11:16:44;100704.94;;;11.46;78.64
17781;BME280;8498;52.516;13.790;2023-12-28T11:22:07;100704.94;;;12.19;78.27
17781;BME280;8498;52.516;13.790;2023-12-28T11:27:34;100705.97;;;12.05;75.89
17781;BME280;8498;52.516;13.790;2023-12-28T11:32:57;100684.66;;;12.29;74.25
17781;BME280;8498;52.516;13.790;2023-12-28T11:38:21;100689.09;;;11.94;74.91
17781;BME280;8498;52.516;13.790;2023-12-28T11:43:51;100691.75;;;11.45;78.61
17781;BME280;8498;52.516;13.790;2023-12-28T11:49:14;100678.41;;;11.08;80.03
17781;BME280;8498;52.516;13.790;2023-12-28T11:54:36;100691.38;;;11.13;80.44
17781;BME280;8498;52.516;13.790;2023-12-28T12:00:00;100685.06;;;11.39;79.48
17781;BME280;8498;52.516;13.790;2023-12-28T12:05:25;100668.69;;;11.82;77.50
17781;BME280;8498;52.516;13.790;2023-12-28T12:10:58;100668.41;;;12.21;74.40
17781;BME280;8498;52.516;13.790;2023-12-28T12:16:22;100643.25;;;12.36;73.13
17781;BME280;8498;52.516;13.790;2023-12-28T12:21:45;100628.50;;;12.43;72.61
17781;BME280;8498;52.516;13.790;2023-12-28T12:27:09;100642.22;;;12.50;72.18
17781;BME280;8498;52.516;13.790;2023-12-28T12:32:32;100645.94;;;12.47;71.39
17781;BME280;8498;52.516;13.790;2023-12-28T12:37:55;100645.13;;;12.58;71.27
17781;BME280;8498;52.516;13.790;2023-12-28T12:43:17;100642.09;;;12.52;71.11
17781;BME280;8498;52.516;13.790;2023-12-28T12:48:41;100636.75;;;12.52;71.67
17781;BME280;8498;52.516;13.790;2023-12-28T12:54:04;100649.88;;;12.66;70.32
17781;BME280;8498;52.516;13.790;2023-12-28T12:59:27;100642.81;;;12.42;70.94
17781;BME280;8498;52.516;13.790;2023-12-28T13:04:52;100642.47;;;12.58;71.07
17781;BME280;8498;52.516;13.790;2023-12-28T13:10:18;100647.50;;;12.39;71.51
17781;BME280;8498;52.516;13.790;2023-12-28T13:15:40;100644.03;;;12.49;71.01
17781;BME280;8498;52.516;13.790;2023-12-28T13:21:03;100644.03;;;12.49;70.80
17781;BME280;8498;52.516;13.790;2023-12-28T13:26:26;100627.97;;;12.27;71.66
17781;BME280;8498;52.516;13.790;2023-12-28T13:31:49;100638.19;;;12.33;71.57
17781;BME280;8498;52.516;13.790;2023-12-28T13:37:12;100639.53;;;12.15;71.82
17781;BME280;8498;52.516;13.790;2023-12-28T13:42:35;100635.34;;;11.89;73.42
17781;BME280;8498;52.516;13.790;2023-12-28T13:47:57;100635.66;;;11.84;73.66
17781;BME280;8498;52.516;13.790;2023-12-28T13:53:19;100642.31;;;11.66;74.74
17781;BME280;8498;52.516;13.790;2023-12-28T13:58:42;100643.19;;;11.54;75.78
17781;BME280;8498;52.516;13.790;2023-12-28T14:04:06;100650.03;;;11.45;76.45
17781;BME280;8498;52.516;13.790;2023-12-28T14:09:30;100647.94;;;11.37;77.14
17781;BME280;8498;52.516;13.790;2023-12-28T14:14:55;100643.75;;;11.46;77.08
17781;BME280;8498;52.516;13.790;2023-12-28T14:20:17;100643.47;;;11.38;76.73
17781;BME280;8498;52.516;13.790;2023-12-28T14:25:40;100639.22;;;11.35;76.92
17781;BME280;8498;52.516;13.790;2023-12-28T14:31:04;100638.38;;;11.35;77.34
17781;BME280;8498;52.516;13.790;2023-12-28T14:36:34;100642.22;;;11.31;77.48
17781;BME280;8498;52.516;13.790;2023-12-28T14:41:57;100655.09;;;11.24;77.04
17781;BME280;8498;52.516;13.790;2023-12-28T14:47:25;100640.75;;;11.14;77.05
17781;BME280;8498;52.516;13.790;2023-12-28T14:52:48;100635.88;;;10.95;77.85
17781;BME280;8498;52.516;13.790;2023-12-28T14:58:10;100638.25;;;11.00;78.15
17781;BME280;8498;52.516;13.790;2023-12-28T15:03:32;100654.59;;;10.81;78.90
17781;BME280;8498;52.516;13.790;2023-12-28T15:08:54;100657.91;;;10.85;78.74
17781;BME280;8498;52.516;13.790;2023-12-28T15:14:17;100655.16;;;10.86;79.04
17781;BME280;8498;52.516;13.790;2023-12-28T15:19:39;100647.81;;;10.77;79.84
17781;BME280;8498;52.516;13.790;2023-12-28T15:25:03;100658.22;;;10.55;80.51
17781;BME280;8498;52.516;13.790;2023-12-28T15:30:26;100661.63;;;10.57;80.87
17781;BME280;8498;52.516;13.790;2023-12-28T15:35:49;100646.63;;;10.56;81.37
17781;BME280;8498;52.516;13.790;2023-12-28T15:41:12;100639.31;;;10.47;81.88
17781;BME280;8498;52.516;13.790;2023-12-28T15:46:34;100640.88;;;10.37;82.66
17781;BME280;8498;52.516;13.790;2023-12-28T15:51:57;100637.78;;;10.30;83.12
17781;BME280;8498;52.516;13.790;2023-12-28T15:57:20;100634.34;;;10.28;83.63
17781;BME280;8498;52.516;13.790;2023-12-28T16:02:43;100631.00;;;10.26;83.21
17781;BME280;8498;52.516;13.790;2023-12-28T16:08:05;100619.25;;;10.16;84.32
17781;BME280;8498;52.516;13.790;2023-12-28T16:13:28;100625.03;;;10.22;83.88
17781;BME280;8498;52.516;13.790;2023-12-28T16:18:51;100629.41;;;10.09;84.72
17781;BME280;8498;52.516;13.790;2023-12-28T16:24:13;100626.13;;;10.06;85.15
17781;BME280;8498;52.516;13.790;2023-12-28T16:29:36;100623.66;;;10.03;85.26
17781;BME280;8498;52.516;13.790;2023-12-28T16:34:58;100626.22;;;10.04;85.40
17781;BME280;8498;52.516;13.790;2023-12-28T16:40:22;100618.47;;;10.01;85.50
17781;BME280;8498;52.516;13.790;2023-12-28T16:45:45;100621.44;;;10.09;84.98
17781;BME280;8498;52.516;13.790;2023-12-28T16:51:09;100635.94;;;9.91;85.85
17781;BME280;8498;52.516;13.790;2023-12-28T16:56:32;100618.13;;;9.93;86.17
17781;BME280;8498;52.516;13.790;2023-12-28T17:01:55;100623.72;;;9.88;85.92
17781;BME280;8498;52.516;13.790;2023-12-28T17:07:17;100620.88;;;9.91;86.46
17781;BME280;8498;52.516;13.790;2023-12-28T17:12:40;100630.22;;;9.97;85.86
17781;BME280;8498;52.516;13.790;2023-12-28T17:18:07;100621.44;;;9.97;85.45
17781;BME280;8498;52.516;13.790;2023-12-28T17:23:37;100623.88;;;10.00;85.27
17781;BME280;8498;52.516;13.790;2023-12-28T17:29:07;100615.91;;;10.00;85.09
17781;BME280;8498;52.516;13.790;2023-12-28T17:34:29;100612.63;;;10.09;84.92
17781;BME280;8498;52.516;13.790;2023-12-28T17:39:52;100607.75;;;10.03;84.46
17781;BME280;8498;52.516;13.790;2023-12-28T17:45:21;100612.63;;;9.96;84.73
17781;BME280;8498;52.516;13.790;2023-12-28T17:50:44;100611.41;;;9.87;84.84
17781;BME280;8498;52.516;13.790;2023-12-28T17:56:07;100615.78;;;9.88;84.90
17781;BME280;8498;52.516;13.790;2023-12-28T18:01:30;100610.69;;;9.98;84.13
17781;BME280;8498;52.516;13.790;2023-12-28T18:06:52;100615.66;;;9.90;84.21
17781;BME280;8498;52.516;13.790;2023-12-28T18:12:15;100614.91;;;9.88;84.53
17781;BME280;8498;52.516;13.790;2023-12-28T18:17:37;100619.69;;;9.83;84.78
17781;BME280;8498;52.516;13.790;2023-12-28T18:23:00;100618.31;;;9.90;84.64
17781;BME280;8498;52.516;13.790;2023-12-28T18:28:23;100613.81;;;9.78;84.65
17781;BME280;8498;52.516;13.790;2023-12-28T18:33:45;100614.22;;;9.72;84.83
17781;BME280;8498;52.516;13.790;2023-12-28T18:39:12;100624.28;;;9.67;85.68
17781;BME280;8498;52.516;13.790;2023-12-28T18:44:38;100634.34;;;9.62;85.82
17781;BME280;8498;52.516;13.790;2023-12-28T18:50:01;100635.41;;;9.59;86.02
17781;BME280;8498;52.516;13.790;2023-12-28T18:55:23;100625.03;;;9.69;86.06
17781;BME280;8498;52.516;13.790;2023-12-28T19:00:46;100623.00;;;9.60;86.55
17781;BME280;8498;52.516;13.790;2023-12-28T19:06:12;100615.81;;;9.47;87.45
17781;BME280;8498;52.516;13.790;2023-12-28T19:11:35;100627.38;;;9.46;87.12
17781;BME280;8498;52.516;13.790;2023-12-28T19:16:58;100610.13;;;9.53;86.88
17781;BME280;8498;52.516;13.790;2023-12-28T19:22:21;100610.53;;;9.47;87.09
17781;BME280;8498;52.516;13.790;2023-12-28T19:27:44;100607.06;;;9.33;87.54
17781;BME280;8498;52.516;13.790;2023-12-28T19:33:09;100604.41;;;9.33;87.43
17781;BME280;8498;52.516;13.790;2023-12-28T19:38:31;100598.63;;;9.40;87.01
17781;BME280;8498;52.516;13.790;2023-12-28T19:43:53;100596.63;;;9.44;86.56
17781;BME280;8498;52.516;13.790;2023-12-28T19:49:17;100583.81;;;9.50;88.58
17781;BME280;8498;52.516;13.790;2023-12-28T19:54:40;100586.47;;;9.90;84.02
17781;BME280;8498;52.516;13.790;2023-12-28T20:00:03;100585.31;;;9.54;84.80
17781;BME280;8498;52.516;13.790;2023-12-28T20:05:27;100579.66;;;9.46;85.41
17781;BME280;8498;52.516;13.790;2023-12-28T20:10:50;100588.00;;;9.40;85.54
17781;BME280;8498;52.516;13.790;2023-12-28T20:16:12;100579.75;;;9.45;85.66
17781;BME280;8498;52.516;13.790;2023-12-28T20:21:35;100578.44;;;9.38;85.72
17781;BME280;8498;52.516;13.790;2023-12-28T20:27:00;100577.59;;;9.37;85.71
17781;BME280;8498;52.516;13.790;2023-12-28T20:32:23;100576.22;;;9.32;86.21
17781;BME280;8498;52.516;13.790;2023-12-28T20:37:46;100578.19;;;9.28;86.00
17781;BME280;8498;52.516;13.790;2023-12-28T20:43:12;100575.16;;;9.34;85.84
17781;BME280;8498;52.516;13.790;2023-12-28T20:48:35;100577.81;;;9.34;85.72
17781;BME280;8498;52.516;13.790;2023-12-28T20:53:57;100580.50;;;9.20;86.36
17781;BME280;8498;52.516;13.790;2023-12-28T20:59:20;100573.88;;;9.13;86.74
17781;BME280;8498;52.516;13.790;2023-12-28T21:04:42;100579.63;;;9.19;86.50
17781;BME280;8498;52.516;13.790;2023-12-28T21:10:05;100566.28;;;9.21;85.57
17781;BME280;8498;52.516;13.790;2023-12-28T21:15:28;100561.38;;;9.15;86.26
17781;BME280;8498;52.516;13.790;2023-12-28T21:20:50;100562.88;;;9.19;85.98
17781;BME280;8498;52.516;13.790;2023-12-28T21:26:31;100561.50;;;9.13;86.30
17781;BME280;8498;52.516;13.790;2023-12-28T21:31:54;100555.63;;;9.08;86.82
17781;BME280;8498;52.516;13.790;2023-12-28T21:37:16;100553.63;;;9.12;86.55
17781;BME280;8498;52.516;13.790;2023-12-28T21:42:39;100545.47;;;9.15;86.32
17781;BME280;8498;52.516;13.790;2023-12-28T21:48:03;100549.47;;;9.08;86.94
17781;BME280;8498;52.516;13.790;2023-12-28T21:53:27;100552.69;;;9.13;87.09
17781;BME280;8498;52.516;13.790;2023-12-28T21:58:49;100553.13;;;9.19;86.65
17781;BME280;8498;52.516;13.790;2023-12-28T22:04:12;100539.97;;;9.18;86.79
17781;BME280;8498;52.516;13.790;2023-12-28T22:09:35;100535.63;;;9.17;86.81
17781;BME280;8498;52.516;13.790;2023-12-28T22:14:58;100535.03;;;9.26;86.36
17781;BME280;8498;52.516;13.790;2023-12-28T22:20:22;100541.28;;;9.25;86.70
17781;BME280;8498;52.516;13.790;2023-12-28T22:25:44;100546.38;;;9.28;86.14
17781;BME280;8498;52.516;13.790;2023-12-28T22:31:09;100542.59;;;9.32;86.07
17781;BME280;8498;52.516;13.790;2023-12-28T22:36:32;100533.97;;;9.29;86.54
17781;BME280;8498;52.516;13.790;2023-12-28T22:41:56;100527.06;;;9.26;86.42
17781;BME280;8498;52.516;13.790;2023-12-28T22:47:19;100529.72;;;9.26;86.66
17781;BME280;8498;52.516;13.790;2023-12-28T22:52:46;100532.78;;;9.20;86.71
17781;BME280;8498;52.516;13.790;2023-12-28T22:58:08;100505.84;;;9.13;86.81
17781;BME280;8498;52.516;13.790;2023-12-28T23:03:30;100504.75;;;9.16;87.21
17781;BME280;8498;52.516;13.790;2023-12-28T23:08:53;100493.06;;;9.06;87.25
17781;BME280;8498;52.516;13.790;2023-12-28T23:14:15;100486.22;;;9.16;86.89
17781;BME280;8498;52.516;13.790;2023-12-28T23:19:41;100493.81;;;9.08;87.17
17781;BME280;8498;52.516;13.790;2023-12-28T23:25:06;100480.38;;;9.11;87.19
17781;BME280;8498;52.516;13.790;2023-12-28T23:30:28;100482.63;;;9.17;86.58
17781;BME280;8498;52.516;13.790;2023-12-28T23:35:51;100476.38;;;9.18;86.51
17781;BME280;8498;52.516;13.790;2023-12-28T23:41:14;100470.81;;;9.08;86.66
17781;BME280;8498;52.516;13.790;2023-12-28T23:46:37;100475.72;;;9.14;86.51
17781;BME280;8498;52.516;13.790;2023-12-28T23:52:02;100461.97;;;9.22;86.81
17781;BME280;8498;52.516;13.790;2023-12-28T23:57:24;100453.28;;;9.20;86.79
